sensor_id;sensor_type;location;lat;lon;timestamp;temperature;humidity
69281;SHT31;56392;51.082;17.080;2022-07-21T00:03:26;23.25;58.61
69281;SHT31;56392;51.082;17.080;2022-07-21T00:08:29;23.14;58.32
69281;SHT31;56392;51.082;17.080;2022-07-21T00:13:33;23.06;58.72
69281;SHT31;56392;51.082;17.080;2022-07-21T00:18:36;22.94;59.12
69281;SHT31;56392;51.082;17.080;2022-07-21T00:23:39;23.19;55.78
69281;SHT31;56392;51.082;17.080;2022-07-21T00:28:43;23.49;54.49
69281;SHT31;56392;51.082;17.080;2022-07-21T00:33:46;23.16;56.33
69281;SHT31;56392;51.082;17.080;2022-07-21T00:38:52;22.94;56.98
69281;SHT31;56392;51.082;17.080;2022-07-21T00:43:56;22.74;58.10
69281;SHT31;56392;51.082;17.080;2022-07-21T00:48:59;22.61;57.56
69281;SHT31;56392;51.082;17.080;2022-07-21T00:54:02;22.91;56.36
69281;SHT31;56392;51.082;17.080;2022-07-21T00:59:06;22.94;57.24
69281;SHT31;56392;51.082;17.080;2022-07-21T01:04:09;22.64;58.79
69281;SHT31;56392;51.082;17.080;2022-07-21T01:09:12;22.43;58.93
69281;SHT31;56392;51.082;17.080;2022-07-21T01:14:16;22.64;56.40
69281;SHT31;56392;51.082;17.080;2022-07-21T01:19:19;22.78;55.65
69281;SHT31;56392;51.082;17.080;2022-07-21T01:24:23;22.92;54.63
69281;SHT31;56392;51.082;17.080;2022-07-21T01:29:26;22.72;56.94
69281;SHT31;56392;51.082;17.080;2022-07-21T01:34:28;22.30;59.00
69281;SHT31;56392;51.082;17.080;2022-07-21T01:39:32;22.06;60.30
69281;SHT31;56392;51.082;17.080;2022-07-21T01:44:52;22.20;59.75
69281;SHT31;56392;51.082;17.080;2022-07-21T01:49:55;21.93;61.02
69281;SHT31;56392;51.082;17.080;2022-07-21T01:54:59;21.63;62.17
69281;SHT31;56392;51.082;17.080;2022-07-21T02:00:02;21.56;61.70
69281;SHT31;56392;51.082;17.080;2022-07-21T02:05:06;21.42;61.47
69281;SHT31;56392;51.082;17.080;2022-07-21T02:10:10;21.46;61.35
69281;SHT31;56392;51.082;17.080;2022-07-21T02:15:15;21.54;60.06
69281;SHT31;56392;51.082;17.080;2022-07-21T02:20:17;21.46;60.99
69281;SHT31;56392;51.082;17.080;2022-07-21T02:25:21;21.17;62.50
69281;SHT31;56392;51.082;17.080;2022-07-21T02:30:24;21.04;62.59
69281;SHT31;56392;51.082;17.080;2022-07-21T02:35:27;20.95;62.67
69281;SHT31;56392;51.082;17.080;2022-07-21T02:40:31;20.90;63.19
69281;SHT31;56392;51.082;17.080;2022-07-21T02:45:34;20.83;63.50
69281;SHT31;56392;51.082;17.080;2022-07-21T02:50:40;20.72;64.53
69281;SHT31;56392;51.082;17.080;2022-07-21T02:55:45;20.67;64.89
69281;SHT31;56392;51.082;17.080;2022-07-21T03:00:51;20.70;64.61
69281;SHT31;56392;51.082;17.080;2022-07-21T03:05:54;20.63;64.28
69281;SHT31;56392;51.082;17.080;2022-07-21T03:10:58;20.53;65.49
69281;SHT31;56392;51.082;17.080;2022-07-21T03:16:01;20.46;65.85
69281;SHT31;56392;51.082;17.080;2022-07-21T03:21:04;20.37;65.71
69281;SHT31;56392;51.082;17.080;2022-07-21T03:26:08;20.40;65.38
69281;SHT31;56392;51.082;17.080;2022-07-21T03:31:11;20.33;66.05
69281;SHT31;56392;51.082;17.080;2022-07-21T03:36:13;20.29;66.54
69281;SHT31;56392;51.082;17.080;2022-07-21T03:41:17;20.45;65.81
69281;SHT31;56392;51.082;17.080;2022-07-21T03:46:22;20.50;65.43
69281;SHT31;56392;51.082;17.080;2022-07-21T03:51:24;20.42;65.95
69281;SHT31;56392;51.082;17.080;2022-07-21T03:56:28;20.49;66.11
69281;SHT31;56392;51.082;17.080;2022-07-21T04:01:31;20.69;65.51
69281;SHT31;56392;51.082;17.080;2022-07-21T04:06:34;20.76;65.49
69281;SHT31;56392;51.082;17.080;2022-07-21T04:11:38;20.81;65.68
69281;SHT31;56392;51.082;17.080;2022-07-21T04:16:43;20.91;65.56
69281;SHT31;56392;51.082;17.080;2022-07-21T04:21:46;21.30;64.22
69281;SHT31;56392;51.082;17.080;2022-07-21T04:26:50;21.48;64.27
69281;SHT31;56392;51.082;17.080;2022-07-21T04:31:53;21.75;63.28
69281;SHT31;56392;51.082;17.080;2022-07-21T04:36:55;22.12;61.90
69281;SHT31;56392;51.082;17.080;2022-07-21T04:41:59;22.36;61.37
69281;SHT31;56392;51.082;17.080;2022-07-21T04:47:02;22.55;61.40
69281;SHT31;56392;51.082;17.080;2022-07-21T04:52:05;22.81;59.95
69281;SHT31;56392;51.082;17.080;2022-07-21T04:57:09;23.15;58.98
69281;SHT31;56392;51.082;17.080;2022-07-21T05:02:12;23.45;57.94
69281;SHT31;56392;51.082;17.080;2022-07-21T05:07:16;23.66;56.89
69281;SHT31;56392;51.082;17.080;2022-07-21T05:12:20;24.25;55.50
69281;SHT31;56392;51.082;17.080;2022-07-21T05:17:22;25.85;51.85
69281;SHT31;56392;51.082;17.080;2022-07-21T05:22:25;26.70;50.06
69281;SHT31;56392;51.082;17.080;2022-07-21T05:27:32;27.61;47.95
69281;SHT31;56392;51.082;17.080;2022-07-21T05:32:35;27.75;47.74
69281;SHT31;56392;51.082;17.080;2022-07-21T05:37:38;28.00;47.53
69281;SHT31;56392;51.082;17.080;2022-07-21T05:42:42;28.60;46.29
69281;SHT31;56392;51.082;17.080;2022-07-21T05:47:45;29.49;44.36
69281;SHT31;56392;51.082;17.080;2022-07-21T05:52:47;30.10;42.42
69281;SHT31;56392;51.082;17.080;2022-07-21T05:57:51;30.98;40.10
69281;SHT31;56392;51.082;17.080;2022-07-21T06:02:54;34.01;35.39
69281;SHT31;56392;51.082;17.080;2022-07-21T06:07:56;37.73;29.33
69281;SHT31;56392;51.082;17.080;2022-07-21T06:13:00;40.15;25.70
69281;SHT31;56392;51.082;17.080;2022-07-21T06:18:03;41.98;24.98
69281;SHT31;56392;51.082;17.080;2022-07-21T06:23:06;43.51;23.40
69281;SHT31;56392;51.082;17.080;2022-07-21T06:28:10;44.63;21.95
69281;SHT31;56392;51.082;17.080;2022-07-21T06:33:15;45.44;20.78
69281;SHT31;56392;51.082;17.080;2022-07-21T06:38:18;46.53;19.66
69281;SHT31;56392;51.082;17.080;2022-07-21T06:43:22;46.36;19.44
69281;SHT31;56392;51.082;17.080;2022-07-21T06:48:25;45.24;20.48
69281;SHT31;56392;51.082;17.080;2022-07-21T06:53:28;47.00;18.90
69281;SHT31;56392;51.082;17.080;2022-07-21T06:58:32;49.10;17.60
69281;SHT31;56392;51.082;17.080;2022-07-21T07:03:36;50.35;16.98
69281;SHT31;56392;51.082;17.080;2022-07-21T07:08:39;50.86;16.78
69281;SHT31;56392;51.082;17.080;2022-07-21T07:13:43;50.83;16.49
69281;SHT31;56392;51.082;17.080;2022-07-21T07:18:45;51.65;16.05
69281;SHT31;56392;51.082;17.080;2022-07-21T07:23:48;52.54;15.08
69281;SHT31;56392;51.082;17.080;2022-07-21T07:28:52;52.27;15.06
69281;SHT31;56392;51.082;17.080;2022-07-21T07:33:54;51.72;15.57
69281;SHT31;56392;51.082;17.080;2022-07-21T07:38:58;51.92;15.29
69281;SHT31;56392;51.082;17.080;2022-07-21T07:44:04;51.92;14.99
69281;SHT31;56392;51.082;17.080;2022-07-21T07:49:06;52.02;15.22
69281;SHT31;56392;51.082;17.080;2022-07-21T07:54:10;52.53;14.76
69281;SHT31;56392;51.082;17.080;2022-07-21T07:59:14;52.52;14.81
69281;SHT31;56392;51.082;17.080;2022-07-21T08:04:17;51.91;15.43
69281;SHT31;56392;51.082;17.080;2022-07-21T08:09:19;48.63;16.90
69281;SHT31;56392;51.082;17.080;2022-07-21T08:14:23;45.17;18.80
69281;SHT31;56392;51.082;17.080;2022-07-21T08:19:26;44.31;20.11
69281;SHT31;56392;51.082;17.080;2022-07-21T08:24:29;45.45;18.57
69281;SHT31;56392;51.082;17.080;2022-07-21T08:29:33;47.30;17.92
69281;SHT31;56392;51.082;17.080;2022-07-21T08:34:36;46.36;17.52
69281;SHT31;56392;51.082;17.080;2022-07-21T08:39:38;45.50;17.79
69281;SHT31;56392;51.082;17.080;2022-07-21T08:44:42;43.27;19.60
69281;SHT31;56392;51.082;17.080;2022-07-21T08:49:48;41.47;21.43
69281;SHT31;56392;51.082;17.080;2022-07-21T08:54:51;40.20;21.77
69281;SHT31;56392;51.082;17.080;2022-07-21T08:59:55;40.21;22.43
69281;SHT31;56392;51.082;17.080;2022-07-21T09:04:58;40.13;22.52
69281;SHT31;56392;51.082;17.080;2022-07-21T09:10:02;39.82;21.93
69281;SHT31;56392;51.082;17.080;2022-07-21T09:15:17;39.39;21.63
69281;SHT31;56392;51.082;17.080;2022-07-21T09:20:21;39.43;21.38
69281;SHT31;56392;51.082;17.080;2022-07-21T09:25:33;38.77;21.92
69281;SHT31;56392;51.082;17.080;2022-07-21T09:30:57;38.90;22.09
69281;SHT31;56392;51.082;17.080;2022-07-21T09:36:03;39.36;21.72
69281;SHT31;56392;51.082;17.080;2022-07-21T09:41:10;39.87;21.03
69281;SHT31;56392;51.082;17.080;2022-07-21T09:46:17;40.37;20.38
69281;SHT31;56392;51.082;17.080;2022-07-21T09:51:22;40.43;20.45
69281;SHT31;56392;51.082;17.080;2022-07-21T09:56:27;40.98;20.73
69281;SHT31;56392;51.082;17.080;2022-07-21T10:01:32;40.56;19.41
69281;SHT31;56392;51.082;17.080;2022-07-21T10:06:40;40.56;20.46
69281;SHT31;56392;51.082;17.080;2022-07-21T10:11:43;41.15;20.52
69281;SHT31;56392;51.082;17.080;2022-07-21T10:16:47;41.42;20.47
69281;SHT31;56392;51.082;17.080;2022-07-21T10:21:55;41.39;20.13
69281;SHT31;56392;51.082;17.080;2022-07-21T10:27:03;41.21;19.94
69281;SHT31;56392;51.082;17.080;2022-07-21T10:32:10;41.26;19.84
69281;SHT31;56392;51.082;17.080;2022-07-21T10:37:43;41.23;19.64
69281;SHT31;56392;51.082;17.080;2022-07-21T10:43:43;40.96;19.73
69281;SHT31;56392;51.082;17.080;2022-07-21T10:49:08;41.02;18.99
69281;SHT31;56392;51.082;17.080;2022-07-21T10:54:23;40.92;18.98
69281;SHT31;56392;51.082;17.080;2022-07-21T10:59:26;40.15;19.87
69281;SHT31;56392;51.082;17.080;2022-07-21T11:04:30;40.10;19.57
69281;SHT31;56392;51.082;17.080;2022-07-21T11:09:33;39.49;19.80
69281;SHT31;56392;51.082;17.080;2022-07-21T11:14:37;39.55;20.57
69281;SHT31;56392;51.082;17.080;2022-07-21T11:19:43;39.05;19.83
69281;SHT31;56392;51.082;17.080;2022-07-21T11:24:55;38.68;20.54
69281;SHT31;56392;51.082;17.080;2022-07-21T11:30:00;38.60;20.38
69281;SHT31;56392;51.082;17.080;2022-07-21T11:35:05;38.46;20.25
69281;SHT31;56392;51.082;17.080;2022-07-21T11:40:10;38.28;20.39
69281;SHT31;56392;51.082;17.080;2022-07-21T11:45:14;38.27;20.39
69281;SHT31;56392;51.082;17.080;2022-07-21T11:50:19;37.87;20.27
69281;SHT31;56392;51.082;17.080;2022-07-21T11:55:27;37.70;20.25
69281;SHT31;56392;51.082;17.080;2022-07-21T12:00:30;37.66;20.29
69281;SHT31;56392;51.082;17.080;2022-07-21T12:05:36;37.41;20.17
69281;SHT31;56392;51.082;17.080;2022-07-21T12:10:40;37.45;20.36
69281;SHT31;56392;51.082;17.080;2022-07-21T12:15:43;37.36;19.77
69281;SHT31;56392;51.082;17.080;2022-07-21T12:20:47;37.22;20.39
69281;SHT31;56392;51.082;17.080;2022-07-21T12:25:51;37.21;20.40
69281;SHT31;56392;51.082;17.080;2022-07-21T12:30:54;37.19;20.56
69281;SHT31;56392;51.082;17.080;2022-07-21T12:36:00;37.21;20.25
69281;SHT31;56392;51.082;17.080;2022-07-21T12:41:05;37.15;20.23
69281;SHT31;56392;51.082;17.080;2022-07-21T12:46:10;37.07;19.90
69281;SHT31;56392;51.082;17.080;2022-07-21T12:51:20;37.11;20.05
69281;SHT31;56392;51.082;17.080;2022-07-21T12:56:26;36.97;20.01
69281;SHT31;56392;51.082;17.080;2022-07-21T13:01:29;36.84;19.78
69281;SHT31;56392;51.082;17.080;2022-07-21T13:06:35;36.92;20.05
69281;SHT31;56392;51.082;17.080;2022-07-21T13:11:38;36.94;20.05
69281;SHT31;56392;51.082;17.080;2022-07-21T13:16:40;36.95;19.93
69281;SHT31;56392;51.082;17.080;2022-07-21T13:21:45;36.99;19.82
69281;SHT31;56392;51.082;17.080;2022-07-21T13:26:47;36.88;19.52
69281;SHT31;56392;51.082;17.080;2022-07-21T13:31:50;36.80;19.84
69281;SHT31;56392;51.082;17.080;2022-07-21T13:36:54;36.70;19.19
69281;SHT31;56392;51.082;17.080;2022-07-21T13:41:57;36.66;19.25
69281;SHT31;56392;51.082;17.080;2022-07-21T13:46:59;36.68;19.35
69281;SHT31;56392;51.082;17.080;2022-07-21T13:52:04;36.71;19.50
69281;SHT31;56392;51.082;17.080;2022-07-21T13:57:08;36.63;19.30
69281;SHT31;56392;51.082;17.080;2022-07-21T14:02:10;36.63;19.77
69281;SHT31;56392;51.082;17.080;2022-07-21T14:07:15;36.58;19.31
69281;SHT31;56392;51.082;17.080;2022-07-21T14:12:17;36.58;19.17
69281;SHT31;56392;51.082;17.080;2022-07-21T14:17:20;36.48;19.42
69281;SHT31;56392;51.082;17.080;2022-07-21T14:22:24;36.48;19.36
69281;SHT31;56392;51.082;17.080;2022-07-21T14:27:27;36.50;19.40
69281;SHT31;56392;51.082;17.080;2022-07-21T14:32:29;36.46;19.48
69281;SHT31;56392;51.082;17.080;2022-07-21T14:37:34;36.37;19.88
69281;SHT31;56392;51.082;17.080;2022-07-21T14:42:37;36.37;19.74
69281;SHT31;56392;51.082;17.080;2022-07-21T14:47:39;36.30;19.96
69281;SHT31;56392;51.082;17.080;2022-07-21T14:52:43;36.27;20.45
69281;SHT31;56392;51.082;17.080;2022-07-21T14:57:46;36.26;20.66
69281;SHT31;56392;51.082;17.080;2022-07-21T15:02:49;36.17;20.46
69281;SHT31;56392;51.082;17.080;2022-07-21T15:07:53;36.19;20.34
69281;SHT31;56392;51.082;17.080;2022-07-21T15:12:56;36.20;20.72
69281;SHT31;56392;51.082;17.080;2022-07-21T15:17:58;36.15;21.34
69281;SHT31;56392;51.082;17.080;2022-07-21T15:23:02;36.06;21.15
69281;SHT31;56392;51.082;17.080;2022-07-21T15:28:05;36.05;20.17
69281;SHT31;56392;51.082;17.080;2022-07-21T15:33:08;36.05;19.96
69281;SHT31;56392;51.082;17.080;2022-07-21T15:38:12;36.09;20.68
69281;SHT31;56392;51.082;17.080;2022-07-21T15:43:15;35.99;21.37
69281;SHT31;56392;51.082;17.080;2022-07-21T15:48:17;35.89;22.75
69281;SHT31;56392;51.082;17.080;2022-07-21T15:53:22;35.75;22.23
69281;SHT31;56392;51.082;17.080;2022-07-21T15:58:25;35.59;21.19
69281;SHT31;56392;51.082;17.080;2022-07-21T16:03:28;35.39;20.85
69281;SHT31;56392;51.082;17.080;2022-07-21T16:08:34;35.23;22.16
69281;SHT31;56392;51.082;17.080;2022-07-21T16:13:38;35.06;23.94
69281;SHT31;56392;51.082;17.080;2022-07-21T16:19:01;34.38;27.59
69281;SHT31;56392;51.082;17.080;2022-07-21T16:24:06;33.91;28.07
69281;SHT31;56392;51.082;17.080;2022-07-21T16:29:09;33.65;28.77
69281;SHT31;56392;51.082;17.080;2022-07-21T16:34:12;33.27;30.79
69281;SHT31;56392;51.082;17.080;2022-07-21T16:39:15;33.11;30.53
69281;SHT31;56392;51.082;17.080;2022-07-21T16:44:38;33.04;30.89
69281;SHT31;56392;51.082;17.080;2022-07-21T16:49:44;32.95;32.65
69281;SHT31;56392;51.082;17.080;2022-07-21T16:54:48;32.82;30.20
69281;SHT31;56392;51.082;17.080;2022-07-21T16:59:51;33.31;30.88
69281;SHT31;56392;51.082;17.080;2022-07-21T17:04:54;33.06;33.14
69281;SHT31;56392;51.082;17.080;2022-07-21T17:09:57;33.06;33.16
69281;SHT31;56392;51.082;17.080;2022-07-21T17:15:00;32.79;35.08
69281;SHT31;56392;51.082;17.080;2022-07-21T17:20:04;32.60;35.25
69281;SHT31;56392;51.082;17.080;2022-07-21T17:25:09;32.40;36.16
69281;SHT31;56392;51.082;17.080;2022-07-21T17:30:12;32.32;36.53
69281;SHT31;56392;51.082;17.080;2022-07-21T17:35:15;32.22;36.75
69281;SHT31;56392;51.082;17.080;2022-07-21T17:40:19;31.99;36.57
69281;SHT31;56392;51.082;17.080;2022-07-21T17:45:22;32.12;35.87
69281;SHT31;56392;51.082;17.080;2022-07-21T17:50:26;32.21;36.45
69281;SHT31;56392;51.082;17.080;2022-07-21T17:55:30;32.24;34.97
69281;SHT31;56392;51.082;17.080;2022-07-21T18:00:35;32.12;35.86
69281;SHT31;56392;51.082;17.080;2022-07-21T18:05:38;32.04;32.64
69281;SHT31;56392;51.082;17.080;2022-07-21T18:10:45;32.08;32.17
69281;SHT31;56392;51.082;17.080;2022-07-21T18:15:47;31.92;32.71
69281;SHT31;56392;51.082;17.080;2022-07-21T18:20:50;31.88;30.74
69281;SHT31;56392;51.082;17.080;2022-07-21T18:25:54;31.92;30.24
69281;SHT31;56392;51.082;17.080;2022-07-21T18:30:57;31.90;30.20
69281;SHT31;56392;51.082;17.080;2022-07-21T18:36:00;31.81;31.17
69281;SHT31;56392;51.082;17.080;2022-07-21T18:41:04;31.37;35.50
69281;SHT31;56392;51.082;17.080;2022-07-21T18:46:07;31.29;34.86
69281;SHT31;56392;51.082;17.080;2022-07-21T18:51:10;31.39;34.82
69281;SHT31;56392;51.082;17.080;2022-07-21T18:56:14;31.33;35.22
69281;SHT31;56392;51.082;17.080;2022-07-21T19:01:17;31.22;35.65
69281;SHT31;56392;51.082;17.080;2022-07-21T19:06:20;31.06;36.68
69281;SHT31;56392;51.082;17.080;2022-07-21T19:11:24;30.88;37.01
69281;SHT31;56392;51.082;17.080;2022-07-21T19:16:26;30.68;37.45
69281;SHT31;56392;51.082;17.080;2022-07-21T19:21:29;30.48;37.91
69281;SHT31;56392;51.082;17.080;2022-07-21T19:26:33;30.34;38.28
69281;SHT31;56392;51.082;17.080;2022-07-21T19:31:36;30.13;38.91
69281;SHT31;56392;51.082;17.080;2022-07-21T19:36:39;29.94;39.34
69281;SHT31;56392;51.082;17.080;2022-07-21T19:41:47;29.74;39.97
69281;SHT31;56392;51.082;17.080;2022-07-21T19:46:50;29.48;40.69
69281;SHT31;56392;51.082;17.080;2022-07-21T19:51:53;29.25;41.45
69281;SHT31;56392;51.082;17.080;2022-07-21T19:57:03;29.01;42.59
69281;SHT31;56392;51.082;17.080;2022-07-21T20:02:06;28.92;42.94
69281;SHT31;56392;51.082;17.080;2022-07-21T20:07:09;28.71;44.56
69281;SHT31;56392;51.082;17.080;2022-07-21T20:12:16;28.54;44.88
69281;SHT31;56392;51.082;17.080;2022-07-21T20:17:19;28.44;44.78
69281;SHT31;56392;51.082;17.080;2022-07-21T20:22:21;28.40;45.09
69281;SHT31;56392;51.082;17.080;2022-07-21T20:27:25;28.30;45.64
69281;SHT31;56392;51.082;17.080;2022-07-21T20:32:28;27.99;46.51
69281;SHT31;56392;51.082;17.080;2022-07-21T20:37:31;27.96;46.51
69281;SHT31;56392;51.082;17.080;2022-07-21T20:42:37;27.84;46.91
69281;SHT31;56392;51.082;17.080;2022-07-21T20:47:41;27.72;47.26
69281;SHT31;56392;51.082;17.080;2022-07-21T20:52:44;27.57;47.44
69281;SHT31;56392;51.082;17.080;2022-07-21T20:57:49;27.34;47.97
69281;SHT31;56392;51.082;17.080;2022-07-21T21:02:53;27.28;47.73
69281;SHT31;56392;51.082;17.080;2022-07-21T21:07:55;27.23;48.06
69281;SHT31;56392;51.082;17.080;2022-07-21T21:12:59;27.14;47.78
69281;SHT31;56392;51.082;17.080;2022-07-21T21:18:02;27.08;47.76
69281;SHT31;56392;51.082;17.080;2022-07-21T21:23:05;26.91;48.24
69281;SHT31;56392;51.082;17.080;2022-07-21T21:28:10;26.75;48.50
69281;SHT31;56392;51.082;17.080;2022-07-21T21:33:13;26.64;48.39
69281;SHT31;56392;51.082;17.080;2022-07-21T21:38:16;26.57;48.75
69281;SHT31;56392;51.082;17.080;2022-07-21T21:43:20;26.53;48.92
69281;SHT31;56392;51.082;17.080;2022-07-21T21:48:22;26.57;48.80
69281;SHT31;56392;51.082;17.080;2022-07-21T21:53:25;26.52;49.07
69281;SHT31;56392;51.082;17.080;2022-07-21T21:58:29;26.46;49.41
69281;SHT31;56392;51.082;17.080;2022-07-21T22:03:32;26.40;49.38
69281;SHT31;56392;51.082;17.080;2022-07-21T22:08:34;26.36;49.31
69281;SHT31;56392;51.082;17.080;2022-07-21T22:13:38;26.25;49.70
69281;SHT31;56392;51.082;17.080;2022-07-21T22:18:41;26.22;49.55
69281;SHT31;56392;51.082;17.080;2022-07-21T22:23:44;26.22;49.40
69281;SHT31;56392;51.082;17.080;2022-07-21T22:28:48;26.16;49.81
69281;SHT31;56392;51.082;17.080;2022-07-21T22:33:51;26.21;49.61
69281;SHT31;56392;51.082;17.080;2022-07-21T22:38:54;26.14;49.57
69281;SHT31;56392;51.082;17.080;2022-07-21T22:43:59;26.19;49.51
69281;SHT31;56392;51.082;17.080;2022-07-21T22:49:01;26.15;49.78
69281;SHT31;56392;51.082;17.080;2022-07-21T22:54:04;26.12;50.01
69281;SHT31;56392;51.082;17.080;2022-07-21T22:59:08;26.15;50.22
69281;SHT31;56392;51.082;17.080;2022-07-21T23:04:11;26.11;50.37
69281;SHT31;56392;51.082;17.080;2022-07-21T23:09:13;26.02;50.28
69281;SHT31;56392;51.082;17.080;2022-07-21T23:14:17;26.09;50.49
69281;SHT31;56392;51.082;17.080;2022-07-21T23:19:20;26.04;50.60
69281;SHT31;56392;51.082;17.080;2022-07-21T23:24:23;25.98;51.05
69281;SHT31;56392;51.082;17.080;2022-07-21T23:29:27;25.87;51.69
69281;SHT31;56392;51.082;17.080;2022-07-21T23:34:29;25.87;51.68
69281;SHT31;56392;51.082;17.080;2022-07-21T23:39:32;25.94;52.32
69281;SHT31;56392;51.082;17.080;2022-07-21T23:44:36;25.85;51.45
69281;SHT31;56392;51.082;17.080;2022-07-21T23:49:39;25.75;51.85
69281;SHT31;56392;51.082;17.080;2022-07-21T23:54:42;25.66;52.87
69281;SHT31;56392;51.082;17.080;2022-07-21T23:59:46;25.48;53.34
